createdAt,value
2019-02-14T00:00:48.574Z,89.62
2019-02-14T00:01:48.577Z,89.25
2019-02-14T00:03:41.478Z,89.43
2019-02-14T00:04:41.500Z,89.91
2019-02-14T00:06:34.379Z,89.81
2019-02-14T00:07:34.387Z,89.91
2019-02-14T00:09:27.287Z,90.10
2019-02-14T00:10:27.290Z,90.19
2019-02-14T00:12:20.183Z,90.29
2019-02-14T00:13:20.192Z,90.29
2019-02-14T00:15:13.094Z,90.86
2019-02-14T00:16:13.096Z,90.95
2019-02-14T00:18:05.988Z,91.14
2019-02-14T00:19:06.002Z,91.24
2019-02-14T00:20:58.902Z,90.86
2019-02-14T00:21:58.907Z,91.05
2019-02-14T00:23:51.808Z,90.86
2019-02-14T00:24:51.810Z,90.76
2019-02-14T00:26:44.704Z,90.57
2019-02-14T00:27:44.717Z,91.05
2019-02-14T00:29:37.616Z,91.14
2019-02-14T00:30:37.619Z,91.14
2019-02-14T00:32:30.515Z,91.52
2019-02-14T00:33:30.523Z,91.52
2019-02-14T00:35:25.348Z,91.33
2019-02-14T00:36:23.426Z,91.61
2019-02-14T00:38:16.322Z,91.47
2019-02-14T00:39:16.333Z,91.52
2019-02-14T00:41:09.242Z,91.42
2019-02-14T00:42:09.236Z,91.61
2019-02-14T00:44:02.183Z,91.66
2019-02-14T00:45:02.139Z,91.47
2019-02-14T00:46:55.038Z,91.38
2019-02-14T00:47:55.048Z,91.57
2019-02-14T00:49:47.942Z,91.47
2019-02-14T00:50:47.946Z,91.28
2019-02-14T00:52:40.842Z,91.38
2019-02-14T00:53:40.852Z,91.19
2019-02-14T00:55:33.754Z,91.00
2019-02-14T00:56:33.755Z,91.19
2019-02-14T00:58:26.651Z,91.19
2019-02-14T00:59:26.674Z,91.76
2019-02-14T01:01:19.564Z,91.76
2019-02-14T01:02:19.568Z,91.38
2019-02-14T01:04:12.486Z,92.04
2019-02-14T01:05:12.468Z,91.76
2019-02-14T01:07:05.371Z,92.52
2019-02-14T01:08:05.373Z,92.52
2019-02-14T01:09:58.273Z,92.52
2019-02-14T01:10:58.275Z,92.61
2019-02-14T01:12:51.168Z,91.85
2019-02-14T01:13:51.178Z,91.85
2019-02-14T01:15:44.080Z,92.04
2019-02-14T01:16:44.078Z,92.33
2019-02-14T01:18:36.972Z,92.33
2019-02-14T01:19:36.984Z,91.85
2019-02-14T01:21:29.885Z,91.76
2019-02-14T01:22:29.884Z,91.76
2019-02-14T01:24:22.799Z,92.23
2019-02-14T01:25:22.790Z,91.95
2019-02-14T01:27:15.683Z,91.95
2019-02-14T01:28:15.692Z,91.66
2019-02-14T01:30:08.591Z,92.33
2019-02-14T01:31:08.595Z,92.14
2019-02-14T01:33:01.487Z,91.85
2019-02-14T01:34:01.519Z,92.14
2019-02-14T01:35:54.412Z,92.14
2019-02-14T01:36:54.414Z,92.09
2019-02-14T01:38:47.309Z,92.71
2019-02-14T01:39:47.320Z,92.38
2019-02-14T01:41:40.215Z,93.13
2019-02-14T01:42:40.217Z,93.08
2019-02-14T01:44:33.117Z,92.80
2019-02-14T01:45:33.119Z,92.94
2019-02-14T01:47:26.012Z,92.99
2019-02-14T01:48:26.021Z,92.99
2019-02-14T01:50:18.927Z,92.94
2019-02-14T01:51:18.923Z,92.76
2019-02-14T01:53:11.815Z,93.04
2019-02-14T01:54:11.823Z,93.13
2019-02-14T01:56:04.724Z,92.85
2019-02-14T01:57:04.727Z,92.94
2019-02-14T01:58:57.623Z,93.04
2019-02-14T01:59:57.631Z,92.85
2019-02-14T02:01:50.531Z,92.66
2019-02-14T02:02:50.534Z,92.66
2019-02-14T02:04:43.436Z,92.76
2019-02-14T02:05:50.677Z,92.85
2019-02-14T02:07:36.326Z,92.85
2019-02-14T02:08:36.335Z,92.85
2019-02-14T02:10:29.235Z,92.85
2019-02-14T02:11:29.236Z,92.94
2019-02-14T02:13:22.133Z,93.61
2019-02-14T02:14:22.141Z,93.32
2019-02-14T02:16:15.038Z,93.61
2019-02-14T02:17:15.041Z,93.42
2019-02-14T02:19:07.935Z,93.32
2019-02-14T02:20:07.944Z,93.42
2019-02-14T02:22:00.844Z,93.61
2019-02-14T02:23:00.847Z,93.51
2019-02-14T02:24:53.742Z,93.32
2019-02-14T02:25:53.750Z,93.42
2019-02-14T02:27:46.648Z,93.13
2019-02-14T02:28:46.648Z,93.04
2019-02-14T02:30:39.551Z,92.66
2019-02-14T02:31:39.550Z,92.85
2019-02-14T02:33:32.448Z,92.94
2019-02-14T02:34:32.453Z,93.61
2019-02-14T02:36:25.354Z,93.42
2019-02-14T02:37:25.354Z,93.51
2019-02-14T02:39:18.247Z,93.51
2019-02-14T02:40:18.258Z,93.42
2019-02-14T02:42:11.161Z,93.61
2019-02-14T02:43:11.157Z,93.84
2019-02-14T02:45:04.081Z,94.18
2019-02-14T02:46:04.066Z,93.94
2019-02-14T02:47:56.967Z,93.75
2019-02-14T02:48:56.967Z,93.75
2019-02-14T02:50:49.867Z,94.23
2019-02-14T02:51:49.870Z,93.94
2019-02-14T02:53:42.759Z,94.13
2019-02-14T02:54:42.768Z,93.75
2019-02-14T02:56:35.670Z,93.94
2019-02-14T02:57:35.670Z,93.94
2019-02-14T02:59:28.567Z,93.94
2019-02-14T03:00:28.570Z,94.13
2019-02-14T03:02:21.470Z,94.51
2019-02-14T03:03:21.470Z,94.60
2019-02-14T03:05:14.366Z,94.79
2019-02-14T03:06:14.378Z,94.32
2019-02-14T03:08:07.278Z,94.42
2019-02-14T03:09:07.281Z,94.89
2019-02-14T03:11:00.897Z,94.51
2019-02-14T03:12:00.177Z,94.51
2019-02-14T03:13:53.103Z,94.89
2019-02-14T03:14:53.083Z,95.55
2019-02-14T03:16:45.985Z,95.26
2019-02-14T03:17:45.976Z,94.70
2019-02-14T03:19:38.867Z,94.79
2019-02-14T03:20:38.872Z,94.70
2019-02-14T03:22:31.774Z,94.13
2019-02-14T03:23:31.773Z,94.13
2019-02-14T03:25:24.719Z,94.23
2019-02-14T03:26:24.678Z,94.13
2019-02-14T03:28:17.633Z,94.42
2019-02-14T03:29:17.577Z,94.70
2019-02-14T03:31:10.475Z,94.13
2019-02-14T03:32:10.511Z,94.23
2019-02-14T03:34:03.370Z,94.23
2019-02-14T03:35:03.380Z,94.32
2019-02-14T03:36:56.273Z,94.23
2019-02-14T03:37:56.282Z,94.13
2019-02-14T03:39:49.169Z,94.23
2019-02-14T03:40:49.178Z,93.94
2019-02-14T03:42:42.073Z,94.23
2019-02-14T03:43:42.077Z,94.23
2019-02-14T03:45:34.966Z,94.32
2019-02-14T03:46:34.975Z,94.60
2019-02-14T03:48:27.872Z,94.70
2019-02-14T03:49:27.871Z,94.42
2019-02-14T03:51:20.773Z,94.60
2019-02-14T03:52:20.772Z,94.79
2019-02-14T03:54:13.662Z,94.42
2019-02-14T03:55:13.672Z,94.98
2019-02-14T03:57:06.571Z,94.51
2019-02-14T03:58:06.573Z,94.70
2019-02-14T03:59:59.531Z,94.70
2019-02-14T04:00:59.543Z,94.60
2019-02-14T04:02:52.484Z,94.51
2019-02-14T04:03:52.441Z,94.23
2019-02-14T04:05:45.339Z,94.23
2019-02-14T04:06:45.378Z,94.60
2019-02-14T04:08:38.239Z,94.42
2019-02-14T04:09:38.238Z,94.70
2019-02-14T04:11:31.141Z,94.60
2019-02-14T04:12:31.142Z,94.70
2019-02-14T04:14:24.035Z,94.51
2019-02-14T04:15:24.041Z,94.98
2019-02-14T04:17:16.939Z,95.17
2019-02-14T04:18:16.942Z,95.45
2019-02-14T04:20:09.833Z,94.98
2019-02-14T04:21:09.840Z,95.17
2019-02-14T04:23:02.742Z,95.36
2019-02-14T04:24:02.744Z,95.74
2019-02-14T04:25:55.696Z,95.45
2019-02-14T04:26:55.643Z,94.79
2019-02-14T04:28:48.541Z,95.55
2019-02-14T04:29:48.541Z,95.07
2019-02-14T04:31:41.440Z,95.17
2019-02-14T04:32:41.494Z,95.12
2019-02-14T04:34:34.333Z,95.17
2019-02-14T04:35:34.343Z,95.12
2019-02-14T04:37:27.249Z,95.21
2019-02-14T04:38:27.242Z,94.93
2019-02-14T04:40:20.133Z,95.03
2019-02-14T04:41:20.141Z,95.12
2019-02-14T04:43:13.040Z,95.21
2019-02-14T04:44:13.045Z,95.12
2019-02-14T04:46:05.935Z,95.21
2019-02-14T04:47:05.943Z,95.21
2019-02-14T04:48:58.843Z,95.03
2019-02-14T04:49:58.844Z,95.21
2019-02-14T04:51:51.740Z,95.21
2019-02-14T04:52:51.740Z,95.12
2019-02-14T04:54:44.629Z,95.40
2019-02-14T04:55:44.637Z,95.12
2019-02-14T04:57:37.533Z,95.31
2019-02-14T04:58:37.536Z,95.40
2019-02-14T05:00:30.426Z,95.21
2019-02-14T05:01:30.433Z,94.74
2019-02-14T05:03:23.333Z,95.21
2019-02-14T05:04:23.332Z,95.21
2019-02-14T05:06:16.223Z,95.21
2019-02-14T05:07:16.231Z,95.50
2019-02-14T05:09:09.132Z,95.40
2019-02-14T05:10:09.133Z,95.31
2019-02-14T05:12:02.026Z,95.21
2019-02-14T05:13:02.024Z,95.50
2019-02-14T05:14:54.915Z,95.69
2019-02-14T05:15:54.923Z,95.59
2019-02-14T05:17:47.853Z,95.59
2019-02-14T05:18:47.822Z,95.78
2019-02-14T05:20:40.714Z,95.78
2019-02-14T05:21:40.722Z,95.50
2019-02-14T05:23:33.621Z,94.84
2019-02-14T05:24:33.619Z,95.40
2019-02-14T05:26:26.512Z,95.50
2019-02-14T05:27:26.518Z,94.74
2019-02-14T05:29:19.421Z,95.69
2019-02-14T05:30:19.423Z,95.69
2019-02-14T05:32:12.327Z,95.12
2019-02-14T05:33:12.322Z,95.40
2019-02-14T05:35:05.211Z,95.31
2019-02-14T05:36:05.223Z,95.21
2019-02-14T05:37:58.122Z,95.12
2019-02-14T05:38:58.121Z,95.59
2019-02-14T05:40:51.009Z,96.07
2019-02-14T05:41:51.018Z,95.78
2019-02-14T05:43:43.919Z,95.59
2019-02-14T05:44:43.916Z,95.50
2019-02-14T05:46:36.807Z,95.78
2019-02-14T05:47:36.815Z,95.97
2019-02-14T05:49:29.710Z,95.31
2019-02-14T05:50:29.713Z,95.50
2019-02-14T05:52:22.609Z,95.31
2019-02-14T05:53:22.613Z,95.50
2019-02-14T05:55:15.506Z,95.21
2019-02-14T05:56:15.511Z,94.74
2019-02-14T05:58:08.411Z,95.31
2019-02-14T05:59:08.498Z,95.31
2019-02-14T06:01:01.308Z,95.21
2019-02-14T06:02:01.312Z,95.40
2019-02-14T06:03:54.210Z,95.21
2019-02-14T06:04:54.210Z,95.03
2019-02-14T06:06:47.107Z,95.12
2019-02-14T06:07:47.115Z,95.40
2019-02-14T06:09:40.030Z,94.08
2019-02-14T06:10:40.015Z,94.56
2019-02-14T06:12:32.925Z,94.46
2019-02-14T06:13:32.929Z,94.37
2019-02-14T06:15:25.829Z,94.74
2019-02-14T06:16:25.827Z,94.46
2019-02-14T06:18:18.728Z,95.03
2019-02-14T06:19:18.728Z,95.31
2019-02-14T06:21:11.634Z,95.50
2019-02-14T06:22:11.633Z,95.31
2019-02-14T06:24:04.531Z,95.21
2019-02-14T06:25:04.530Z,95.21
2019-02-14T06:26:57.435Z,95.12
2019-02-14T06:27:57.429Z,95.21
2019-02-14T06:29:50.326Z,95.21
2019-02-14T06:30:50.329Z,95.12
2019-02-14T06:32:43.226Z,95.12
2019-02-14T06:33:44.385Z,95.21
2019-02-14T06:35:36.115Z,95.12
2019-02-14T06:36:36.135Z,95.31
2019-02-14T06:38:29.021Z,95.31
2019-02-14T06:39:29.027Z,95.31
2019-02-14T06:41:21.915Z,95.31
2019-02-14T06:42:21.922Z,95.31
2019-02-14T06:44:14.823Z,95.12
2019-02-14T06:45:14.825Z,95.40
2019-02-14T06:47:07.718Z,95.21
2019-02-14T06:48:07.724Z,95.31
2019-02-14T06:50:00.620Z,95.40
2019-02-14T06:51:00.619Z,95.12
2019-02-14T06:52:53.536Z,95.12
2019-02-14T06:53:53.522Z,95.31
2019-02-14T06:55:46.417Z,95.31
2019-02-14T06:56:46.429Z,95.03
2019-02-14T06:58:39.332Z,95.12
2019-02-14T06:59:39.331Z,95.40
2019-02-14T07:01:32.225Z,95.12
2019-02-14T07:02:32.237Z,95.31
2019-02-14T07:04:25.132Z,95.78
2019-02-14T07:05:25.134Z,95.59
2019-02-14T07:07:18.960Z,95.69
2019-02-14T07:08:18.070Z,95.69
2019-02-14T07:10:10.932Z,95.59
2019-02-14T07:11:10.935Z,95.78
2019-02-14T07:13:03.846Z,95.59
2019-02-14T07:14:03.831Z,95.59
2019-02-14T07:15:56.732Z,95.83
2019-02-14T07:16:56.732Z,95.59
2019-02-14T07:18:50.129Z,95.40
2019-02-14T07:19:50.133Z,95.40
2019-02-14T07:21:43.015Z,95.74
2019-02-14T07:22:43.024Z,95.74
2019-02-14T07:24:35.923Z,95.83
2019-02-14T07:25:36.479Z,95.83
2019-02-14T07:27:28.817Z,95.64
2019-02-14T07:28:28.827Z,95.83
2019-02-14T07:30:22.215Z,95.74
2019-02-14T07:31:22.221Z,95.55
2019-02-14T07:33:15.106Z,95.55
2019-02-14T07:34:15.133Z,95.64
2019-02-14T07:36:08.025Z,95.74
2019-02-14T07:37:08.022Z,95.55
2019-02-14T07:39:00.924Z,95.55
2019-02-14T07:40:00.931Z,95.64
2019-02-14T07:41:54.309Z,96.59
2019-02-14T07:42:54.316Z,96.40
2019-02-14T07:44:47.770Z,96.21
2019-02-14T07:45:47.254Z,96.02
2019-02-14T07:47:40.146Z,96.21
2019-02-14T07:48:40.153Z,96.12
2019-02-14T07:50:33.059Z,95.36
2019-02-14T07:51:33.059Z,95.55
2019-02-14T07:53:26.463Z,95.74
2019-02-14T07:54:26.464Z,96.02
2019-02-14T07:56:19.363Z,95.83
2019-02-14T07:57:19.367Z,95.93
2019-02-14T07:59:12.284Z,95.74
2019-02-14T08:00:12.265Z,95.64
2019-02-14T08:02:05.217Z,95.60
2019-02-14T08:03:05.170Z,95.41
2019-02-14T08:04:58.075Z,95.41
2019-02-14T08:05:58.071Z,95.50
2019-02-14T08:07:51.468Z,94.84
2019-02-14T08:08:51.496Z,95.60
2019-02-14T08:10:44.402Z,96.07
2019-02-14T08:11:44.407Z,95.88
2019-02-14T08:13:37.304Z,96.07
2019-02-14T08:14:37.314Z,95.98
2019-02-14T08:16:30.236Z,95.41
2019-02-14T08:17:30.242Z,94.65
2019-02-14T08:19:23.140Z,93.04
2019-02-14T08:20:23.142Z,92.57
2019-02-14T08:22:16.034Z,93.13
2019-02-14T08:23:16.044Z,93.04
2019-02-14T08:25:08.948Z,94.08
2019-02-14T08:26:10.851Z,93.51
2019-02-14T08:28:01.849Z,94.08
2019-02-14T08:29:01.857Z,94.18
2019-02-14T08:30:54.758Z,94.56
2019-02-14T08:31:54.759Z,94.56
2019-02-14T08:33:47.651Z,94.93
2019-02-14T08:34:47.659Z,94.65
2019-02-14T08:36:40.564Z,94.84
2019-02-14T08:37:45.536Z,94.60
2019-02-14T08:39:33.465Z,94.51
2019-02-14T08:40:33.470Z,94.42
2019-02-14T08:42:26.362Z,94.13
2019-02-14T08:43:26.375Z,94.04
2019-02-14T08:45:19.273Z,94.04
2019-02-14T08:46:19.277Z,93.65
2019-02-14T08:48:12.183Z,93.18
2019-02-14T08:49:12.179Z,92.14
2019-02-14T08:51:05.080Z,91.09
2019-02-14T08:52:05.084Z,91.09
2019-02-14T08:53:57.979Z,90.24
2019-02-14T08:54:57.988Z,90.62
2019-02-14T08:56:50.893Z,89.86
2019-02-14T08:57:50.892Z,90.24
2019-02-14T08:59:43.792Z,90.24
2019-02-14T09:00:43.794Z,90.10
2019-02-14T09:02:36.688Z,90.48
2019-02-14T09:03:36.699Z,90.86
2019-02-14T09:05:29.604Z,91.14
2019-02-14T09:06:29.601Z,91.71
2019-02-14T09:08:22.494Z,91.80
2019-02-14T09:09:22.507Z,91.42
2019-02-14T09:11:15.410Z,91.71
2019-02-14T09:12:15.414Z,91.14
2019-02-14T09:14:08.308Z,91.80
2019-02-14T09:15:08.321Z,91.61
2019-02-14T09:17:01.220Z,91.75
2019-02-14T09:18:01.223Z,91.28
2019-02-14T09:19:54.126Z,90.62
2019-02-14T09:20:54.129Z,89.25
2019-02-14T09:22:47.030Z,88.62
2019-02-14T09:23:47.039Z,88.62
2019-02-14T09:25:40.443Z,89.00
2019-02-14T09:26:40.456Z,87.96
2019-02-14T09:28:33.333Z,87.01
2019-02-14T09:29:33.345Z,86.72
2019-02-14T09:31:26.247Z,86.63
2019-02-14T09:32:26.251Z,87.20
2019-02-14T09:34:19.148Z,86.35
2019-02-14T09:35:19.155Z,86.82
2019-02-14T09:37:12.057Z,86.44
2019-02-14T09:38:12.062Z,87.11
2019-02-14T09:40:04.965Z,87.39
2019-02-14T09:41:04.969Z,87.01
2019-02-14T09:42:57.871Z,87.39
2019-02-14T09:43:57.884Z,86.44
2019-02-14T09:45:50.788Z,87.01
2019-02-14T09:46:50.782Z,87.01
2019-02-14T09:48:43.684Z,86.82
2019-02-14T09:49:43.699Z,86.54
2019-02-14T09:51:36.599Z,86.49
2019-02-14T09:52:36.596Z,86.39
2019-02-14T09:54:29.491Z,86.68
2019-02-14T09:55:29.513Z,86.39
2019-02-14T09:57:22.408Z,86.20
2019-02-14T09:58:22.792Z,85.91
2019-02-14T10:00:15.345Z,85.25
2019-02-14T10:01:15.314Z,85.25
2019-02-14T10:03:08.217Z,83.64
2019-02-14T10:04:08.219Z,83.26
2019-02-14T10:06:01.124Z,82.69
2019-02-14T10:07:01.134Z,82.03
2019-02-14T10:08:54.023Z,82.31
2019-02-14T10:09:54.033Z,82.54
2019-02-14T10:11:46.962Z,82.88
2019-02-14T10:12:46.944Z,83.16
2019-02-14T10:14:39.835Z,83.11
2019-02-14T10:15:39.855Z,82.92
2019-02-14T10:17:32.757Z,83.30
2019-02-14T10:18:32.761Z,83.11
2019-02-14T10:20:25.666Z,83.11
2019-02-14T10:21:25.675Z,83.01
2019-02-14T10:23:18.577Z,82.49
2019-02-14T10:24:18.584Z,82.39
2019-02-14T10:26:11.489Z,82.01
2019-02-14T10:27:11.488Z,82.39
2019-02-14T10:29:04.383Z,80.96
2019-02-14T10:30:04.396Z,79.63
2019-02-14T10:31:57.302Z,79.25
2019-02-14T10:32:57.306Z,79.35
2019-02-14T10:34:50.207Z,79.35
2019-02-14T10:35:50.218Z,78.59
2019-02-14T10:37:43.125Z,78.50
2019-02-14T10:38:43.128Z,79.06
2019-02-14T10:40:36.038Z,77.55
2019-02-14T10:41:36.038Z,77.07
2019-02-14T10:43:28.938Z,77.55
2019-02-14T10:44:28.946Z,77.92
2019-02-14T10:46:21.849Z,78.40
2019-02-14T10:47:21.852Z,78.40
2019-02-14T10:49:14.762Z,78.59
2019-02-14T10:50:14.769Z,78.06
2019-02-14T10:52:07.676Z,77.55
2019-02-14T10:53:07.683Z,78.16
2019-02-14T10:55:00.579Z,78.44
2019-02-14T10:56:00.592Z,78.16
2019-02-14T10:57:53.499Z,77.87
2019-02-14T10:58:53.506Z,77.91
2019-02-14T11:00:46.408Z,77.81
2019-02-14T11:01:46.413Z,77.05
2019-02-14T11:03:39.355Z,76.52
2019-02-14T11:04:39.322Z,75.57
2019-02-14T11:06:32.229Z,74.43
2019-02-14T11:07:32.239Z,74.04
2019-02-14T11:09:25.161Z,73.47
2019-02-14T11:10:25.148Z,73.47
2019-02-14T11:12:18.057Z,72.62
2019-02-14T11:13:18.065Z,72.62
2019-02-14T11:15:10.966Z,72.52
2019-02-14T11:16:10.977Z,71.67
2019-02-14T11:18:03.892Z,71.76
2019-02-14T11:19:03.893Z,71.47
2019-02-14T11:20:56.799Z,71.19
2019-02-14T11:21:56.811Z,71.28
2019-02-14T11:23:49.708Z,70.33
2019-02-14T11:24:49.719Z,70.81
2019-02-14T11:26:43.156Z,70.81
2019-02-14T11:27:43.163Z,70.90
2019-02-14T11:29:36.023Z,70.90
2019-02-14T11:30:36.036Z,70.81
2019-02-14T11:32:28.945Z,70.47
2019-02-14T11:33:28.954Z,70.65
2019-02-14T11:35:21.849Z,69.32
2019-02-14T11:36:21.862Z,69.32
2019-02-14T11:38:14.786Z,68.46
2019-02-14T11:39:14.790Z,68.08
2019-02-14T11:41:07.695Z,68.27
2019-02-14T11:42:07.702Z,68.27
2019-02-14T11:44:02.748Z,68.56
2019-02-14T11:45:00.612Z,67.80
2019-02-14T11:46:53.524Z,67.41
2019-02-14T11:47:53.527Z,67.89
2019-02-14T11:49:46.426Z,67.51
2019-02-14T11:50:46.440Z,65.03
2019-02-14T11:52:39.355Z,63.23
2019-02-14T11:53:39.355Z,62.94
2019-02-14T11:55:32.260Z,63.23
2019-02-14T11:56:32.270Z,63.23
2019-02-14T11:58:25.174Z,64.18
2019-02-14T11:59:25.181Z,64.18
2019-02-14T12:01:18.094Z,63.23
2019-02-14T12:02:18.100Z,62.85
2019-02-14T12:04:10.997Z,62.27
2019-02-14T12:05:11.017Z,61.90
2019-02-14T12:07:03.922Z,61.70
2019-02-14T12:08:03.920Z,62.12
2019-02-14T12:09:56.819Z,60.37
2019-02-14T12:10:56.832Z,59.70
2019-02-14T12:12:49.740Z,58.50
2019-02-14T12:13:49.748Z,58.59
2019-02-14T12:15:42.655Z,60.40
2019-02-14T12:16:42.661Z,60.78
2019-02-14T12:18:35.565Z,61.07
2019-02-14T12:19:35.572Z,61.25
2019-02-14T12:21:28.497Z,61.25
2019-02-14T12:22:28.490Z,60.30
2019-02-14T12:24:21.402Z,59.83
2019-02-14T12:25:21.408Z,59.54
2019-02-14T12:27:14.309Z,59.35
2019-02-14T12:28:14.311Z,59.54
2019-02-14T12:30:07.216Z,59.09
2019-02-14T12:31:07.227Z,59.09
2019-02-14T12:33:00.208Z,59.19
2019-02-14T12:34:00.144Z,59.09
2019-02-14T12:35:53.057Z,59.38
2019-02-14T12:36:53.069Z,59.19
2019-02-14T12:38:45.978Z,59.48
2019-02-14T12:39:45.982Z,59.57
2019-02-14T12:41:38.909Z,58.52
2019-02-14T12:42:38.895Z,58.52
2019-02-14T12:44:31.815Z,59.19
2019-02-14T12:45:31.808Z,59.19
2019-02-14T12:47:24.717Z,59.48
2019-02-14T12:48:24.719Z,59.00
2019-02-14T12:50:17.625Z,58.91
2019-02-14T12:51:17.637Z,58.65
2019-02-14T12:53:10.539Z,58.24
2019-02-14T12:54:10.548Z,58.84
2019-02-14T12:56:03.467Z,57.70
2019-02-14T12:57:03.464Z,57.50
2019-02-14T12:58:56.376Z,57.22
2019-02-14T12:59:56.380Z,57.41
2019-02-14T13:01:49.804Z,55.50
2019-02-14T13:02:49.788Z,55.79
2019-02-14T13:04:42.692Z,56.36
2019-02-14T13:05:42.703Z,56.74
2019-02-14T13:07:35.609Z,56.93
2019-02-14T13:08:35.618Z,57.12
2019-02-14T13:10:28.524Z,56.36
2019-02-14T13:11:28.533Z,56.26
2019-02-14T13:13:21.936Z,55.79
2019-02-14T13:14:21.942Z,56.17
2019-02-14T13:16:14.865Z,56.55
2019-02-14T13:17:14.859Z,56.07
2019-02-14T13:19:07.783Z,54.26
2019-02-14T13:20:07.791Z,54.36
2019-02-14T13:22:00.715Z,54.83
2019-02-14T13:23:00.711Z,55.69
2019-02-14T13:24:54.098Z,55.50
2019-02-14T13:25:54.110Z,54.26
2019-02-14T13:27:47.067Z,54.26
2019-02-14T13:28:47.025Z,54.07
2019-02-14T13:30:39.929Z,53.62
2019-02-14T13:31:39.941Z,53.72
2019-02-14T13:33:33.399Z,54.36
2019-02-14T13:34:32.857Z,54.19
2019-02-14T13:36:25.756Z,53.81
2019-02-14T13:37:25.779Z,53.53
2019-02-14T13:39:18.694Z,53.53
2019-02-14T13:40:18.691Z,53.62
2019-02-14T13:42:11.632Z,54.19
2019-02-14T13:43:11.654Z,54.29
2019-02-14T13:45:04.518Z,54.10
2019-02-14T13:46:04.526Z,54.10
2019-02-14T13:47:57.443Z,54.10
2019-02-14T13:48:57.451Z,54.10
2019-02-14T13:50:50.352Z,54.29
2019-02-14T13:51:50.366Z,52.67
2019-02-14T13:53:43.276Z,52.67
2019-02-14T13:54:43.283Z,52.86
2019-02-14T13:56:36.186Z,52.57
2019-02-14T13:57:36.199Z,53.05
2019-02-14T13:59:29.110Z,52.76
2019-02-14T14:00:29.129Z,52.38
2019-02-14T14:02:22.085Z,51.71
2019-02-14T14:03:22.060Z,51.33
2019-02-14T14:05:14.965Z,51.52
2019-02-14T14:06:14.978Z,51.33
2019-02-14T14:08:07.884Z,51.81
2019-02-14T14:09:07.885Z,51.90
2019-02-14T14:11:01.786Z,52.38
2019-02-14T14:12:01.805Z,52.57
2019-02-14T14:13:54.710Z,50.57
2019-02-14T14:14:54.722Z,50.85
2019-02-14T14:16:47.623Z,51.23
2019-02-14T14:17:47.638Z,51.90
2019-02-14T14:19:40.553Z,51.04
2019-02-14T14:20:40.558Z,50.18
2019-02-14T14:22:33.477Z,50.09
2019-02-14T14:23:33.474Z,49.16
2019-02-14T14:25:26.376Z,48.28
2019-02-14T14:26:26.390Z,47.89
2019-02-14T14:28:19.299Z,47.80
2019-02-14T14:29:19.308Z,47.13
2019-02-14T14:31:12.225Z,47.32
2019-02-14T14:32:12.234Z,47.13
2019-02-14T14:34:05.627Z,47.82
2019-02-14T14:35:05.635Z,47.92
2019-02-14T14:36:58.534Z,49.07
2019-02-14T14:37:58.548Z,49.54
2019-02-14T14:39:51.464Z,49.26
2019-02-14T14:40:51.470Z,48.02
2019-02-14T14:42:44.399Z,46.97
2019-02-14T14:43:44.387Z,47.06
2019-02-14T14:45:37.286Z,47.92
2019-02-14T14:46:37.303Z,47.06
2019-02-14T14:48:30.222Z,46.39
2019-02-14T14:49:30.220Z,46.77
2019-02-14T14:51:23.123Z,46.77
2019-02-14T14:52:23.143Z,47.06
2019-02-14T14:54:16.053Z,46.68
2019-02-14T14:55:16.059Z,47.44
2019-02-14T14:57:08.964Z,48.11
2019-02-14T14:58:08.977Z,47.92
2019-02-14T15:00:01.964Z,48.11
2019-02-14T15:01:01.964Z,48.21
2019-02-14T15:02:54.893Z,49.07
2019-02-14T15:03:54.879Z,48.88
2019-02-14T15:05:47.790Z,48.30
2019-02-14T15:06:47.794Z,48.78
2019-02-14T15:08:40.709Z,48.59
2019-02-14T15:09:40.714Z,46.20
2019-02-14T15:11:33.621Z,45.25
2019-02-14T15:12:33.632Z,46.01
2019-02-14T15:14:26.543Z,46.87
2019-02-14T15:15:26.561Z,47.54
2019-02-14T15:17:19.456Z,47.92
2019-02-14T15:18:19.468Z,47.73
2019-02-14T15:20:12.373Z,47.44
2019-02-14T15:21:12.398Z,47.16
2019-02-14T15:23:05.302Z,47.73
2019-02-14T15:24:05.304Z,48.02
2019-02-14T15:25:58.711Z,46.87
2019-02-14T15:26:58.713Z,46.47
2019-02-14T15:28:51.627Z,46.27
2019-02-14T15:29:51.631Z,46.47
2019-02-14T15:31:44.535Z,46.56
2019-02-14T15:32:44.544Z,47.32
2019-02-14T15:34:37.463Z,46.84
2019-02-14T15:35:37.469Z,46.75
2019-02-14T15:37:30.365Z,47.42
2019-02-14T15:38:32.064Z,47.89
2019-02-14T15:40:23.307Z,47.80
2019-02-14T15:41:23.297Z,47.89
2019-02-14T15:43:16.231Z,47.80
2019-02-14T15:44:16.213Z,47.99
2019-02-14T15:46:09.145Z,47.87
2019-02-14T15:47:09.142Z,47.23
2019-02-14T15:49:02.044Z,47.11
2019-02-14T15:50:03.884Z,47.49
2019-02-14T15:51:54.980Z,47.97
2019-02-14T15:52:56.933Z,47.68
2019-02-14T15:54:47.879Z,47.78
2019-02-14T15:55:47.882Z,47.78
2019-02-14T15:57:42.842Z,47.68
2019-02-14T15:58:40.801Z,47.87
2019-02-14T16:00:35.122Z,47.97
2019-02-14T16:01:33.726Z,47.78
2019-02-14T16:03:27.124Z,48.04
2019-02-14T16:04:28.797Z,47.75
2019-02-14T16:06:20.030Z,48.42
2019-02-14T16:07:20.102Z,48.52
2019-02-14T16:09:14.438Z,48.42
2019-02-14T16:10:18.555Z,48.23
2019-02-14T16:12:06.408Z,48.61
2019-02-14T16:13:08.102Z,48.99
2019-02-14T16:14:59.284Z,48.71
2019-02-14T16:15:59.304Z,48.71
2019-02-14T16:17:52.234Z,49.37
2019-02-14T16:18:52.487Z,49.47
2019-02-14T16:20:45.395Z,49.54
2019-02-14T16:21:45.264Z,49.18
2019-02-14T16:23:38.122Z,49.26
2019-02-14T16:24:39.189Z,49.35
2019-02-14T16:26:31.077Z,48.97
2019-02-14T16:27:31.066Z,49.06
2019-02-14T16:29:25.015Z,49.44
2019-02-14T16:30:24.498Z,49.63
2019-02-14T16:32:17.380Z,50.01
2019-02-14T16:33:17.367Z,50.11
2019-02-14T16:35:10.858Z,50.01
2019-02-14T16:36:10.306Z,50.59
2019-02-14T16:38:03.227Z,50.78
2019-02-14T16:39:03.394Z,50.97
2019-02-14T16:40:56.220Z,51.32
2019-02-14T16:41:56.238Z,52.37
2019-02-14T16:43:49.053Z,52.56
2019-02-14T16:44:49.248Z,52.84
2019-02-14T16:46:42.047Z,53.42
2019-02-14T16:47:42.016Z,53.42
2019-02-14T16:49:35.430Z,54.27
2019-02-14T16:50:35.434Z,54.27
2019-02-14T16:52:28.332Z,54.82
2019-02-14T16:53:28.359Z,55.39
2019-02-14T16:55:21.252Z,55.20
2019-02-14T16:56:21.261Z,55.68
2019-02-14T16:58:15.163Z,56.44
2019-02-14T16:59:15.183Z,56.53
2019-02-14T17:01:08.099Z,57.39
2019-02-14T17:02:08.105Z,57.29
2019-02-14T17:04:01.060Z,57.39
2019-02-14T17:05:01.051Z,57.67
2019-02-14T17:06:54.016Z,58.53
2019-02-14T17:07:55.923Z,59.10
2019-02-14T17:09:46.842Z,59.39
2019-02-14T17:10:46.856Z,59.77
2019-02-14T17:12:39.782Z,60.21
2019-02-14T17:13:39.772Z,60.60
2019-02-14T17:15:32.674Z,60.50
2019-02-14T17:16:32.678Z,60.88
2019-02-14T17:18:25.575Z,60.78
2019-02-14T17:19:25.591Z,61.35
2019-02-14T17:21:18.500Z,61.55
2019-02-14T17:22:18.503Z,62.56
2019-02-14T17:24:11.411Z,62.46
2019-02-14T17:25:11.419Z,62.46
2019-02-14T17:27:04.346Z,63.13
2019-02-14T17:28:04.347Z,63.60
2019-02-14T17:29:57.247Z,63.60
2019-02-14T17:30:57.257Z,64.08
2019-02-14T17:32:51.160Z,64.56
2019-02-14T17:33:51.165Z,64.75
2019-02-14T17:35:44.127Z,65.41
2019-02-14T17:36:44.096Z,65.80
2019-02-14T17:38:36.988Z,66.46
2019-02-14T17:39:36.999Z,67.13
2019-02-14T17:41:29.907Z,67.19
2019-02-14T17:42:29.908Z,66.80
2019-02-14T17:44:22.812Z,66.71
2019-02-14T17:45:22.818Z,67.09
2019-02-14T17:47:15.725Z,67.76
2019-02-14T17:48:15.742Z,67.85
2019-02-14T17:50:08.676Z,68.04
2019-02-14T17:51:08.638Z,68.52
2019-02-14T17:53:01.579Z,68.42
2019-02-14T17:54:01.876Z,68.23
2019-02-14T17:55:54.449Z,69.18
2019-02-14T17:56:54.460Z,68.99
2019-02-14T17:58:47.352Z,69.09
2019-02-14T17:59:47.364Z,69.09
2019-02-14T18:01:40.267Z,69.27
2019-02-14T18:02:40.276Z,69.46
2019-02-14T18:04:33.182Z,69.46
2019-02-14T18:05:33.192Z,69.94
2019-02-14T18:07:26.094Z,69.34
2019-02-14T18:08:26.100Z,70.29
2019-02-14T18:10:18.996Z,70.10
2019-02-14T18:11:19.007Z,70.76
2019-02-14T18:13:11.924Z,70.86
2019-02-14T18:14:11.936Z,70.67
2019-02-14T18:16:04.829Z,70.95
2019-02-14T18:17:04.832Z,70.76
2019-02-14T18:18:57.732Z,71.33
2019-02-14T18:19:57.746Z,71.52
2019-02-14T18:21:50.650Z,71.62
2019-02-14T18:22:50.650Z,71.71
2019-02-14T18:24:44.554Z,72.28
2019-02-14T18:25:44.563Z,72.38
2019-02-14T18:27:37.494Z,72.85
2019-02-14T18:28:37.501Z,72.66
2019-02-14T18:30:30.372Z,73.23
2019-02-14T18:31:30.382Z,73.33
2019-02-14T18:33:23.338Z,73.52